Terminal Aerodrome Forecast
Issued by NWS

Home | Current Version | Previous Version | Text Only | Print | Product List | Glossary On
Versions: 1 2 3 4 5 6 7 8 9 10 11 12 13 14 15 16 17 18
000
FTUS45 KABQ 230400 AAA
TAFFMN
TAF AMD
KFMN 230405Z 2304/2324 33022G34KT P6SM SCT100
     FM230600 29013KT P6SM SCT080
     FM231200 27007KT P6SM FEW025 SCT070=

USA.gov is the U.S. government's official web portal to all federal, state and local government web resources and services.